Hackettstown, NJ

9:03 PM EDT on August 27, 2014 (GMT -0400)
KNJINDEP2 | Change Station
CLOSE
Current Station
Personal Weather Station
Location: Independence Township, NJ
Elevation: 1036 ft
Nearby Weather Stations

Elev 1036 ft 40.85 °N, 74.88 °W | Updated 17 seconds ago

Clear
Clear
76.9 °F
Feels Like 78 °F
N
0.0
Wind Variable Wind from North
Gusts 0.0 mph

Today
High -- | Low -- °F
--% Chance of Precip.
Yesterday
High -- | Low -- °F
Precip. -- in
6:21 AM 7:39 PM
Waxing Crescent, 5% visible
Pressure 29.87 in
Visibility 10.0 miles
Clouds Clear
Heat Index 78 °F
Dew Point 70 °F
Humidity 80%
Rainfall -999.00 in
Snow Depth Not available.
UV 0 out of 12
Pollen 9.70 out of 12
Air Quality Not available.
Flu Activity Not available.
METAR KSMQ 280053Z AUTO 00000KT 10SM CLR 24/21 A2987 RMK AO2 SLP113 T02440206 $

More Conditions Fewer Conditions

Pressure 29.87 in
Visibility 10.0 miles
Clouds Clear
Heat Index 78 °F
Dew Point 70 °F
Humidity 80%
Rainfall -999.00 in
Snow Depth Not available.
UV 0 out of 12
Pollen 9.70 out of 12
Air Quality Not available.
Flu Activity Not available.
METAR KSMQ 280053Z AUTO 00000KT 10SM CLR 24/21 A2987 RMK AO2 SLP113 T02440206 $

More Conditions Fewer Conditions

Nowcast | as of 8:13 PM EDT on August 27, 2014

Scattered showers and sprinkles will occur between now and 10 PM in far northwest New Jersey and portion of northeast Pennsylvania.

×

10-Day Weather Forecast

Almanac

Astronomy

Aug. 27, 2014 Rise Set
Actual Time 6:21 AM EDT 7:39 PM EDT
Civil Twilight 5:52 AM EDT 8:08 PM EDT
Nautical Twilight 5:18 AM EDT 8:42 PM EDT
Astronomical Twilight 4:42 AM EDT 9:18 PM EDT
Moon 8:16 AM EDT (8/27) 8:29 PM EDT (8/27)
Length of Visible Light 14h 15m
Length of Day
13h 18m
Tomorrow will be 2m 34s shorter.
Waxing Crescent, 5% of the Moon is Illuminated
Today
Waxing Crescent
Sep 2
First Quarter
Sep 8
Full
Sep 15
Last Quarter
Sep 24
New

Today's Extremes

State Highs State Lows

Community

WunderPhotos

Upload Photos

1,747,843 photos uploaded!

Nearby

Snow Depth

Station Depth Elevation
No new snow has been reported.

Earthquake Activity

City Distance Mag. Time & Date
No recent earthquake activity has been reported nearby.
Minimum magnitude displayed is 2.5.

Coastal Water Temperatures

Place Temperature
No Stations Reporting

Nearby Weather Stations